createdAt,value
2023-03-01T00:04:28.670Z,6.95
2023-03-01T00:10:30.388Z,8.70
2023-03-01T00:16:35.177Z,8.75
2023-03-01T00:22:38.027Z,9.77
2023-03-01T00:28:39.832Z,10.77
2023-03-01T00:34:41.635Z,8.82
2023-03-01T00:40:43.380Z,10.32
2023-03-01T00:46:45.144Z,9.40
2023-03-01T00:52:47.234Z,9.68
2023-03-01T00:58:49.273Z,8.35
2023-03-01T01:04:51.121Z,11.30
2023-03-01T01:10:52.819Z,9.52
2023-03-01T01:16:54.694Z,11.30
2023-03-01T01:22:56.586Z,8.60
2023-03-01T01:28:59.351Z,8.48
2023-03-01T01:35:01.109Z,8.80
2023-03-01T01:41:03.023Z,10.02
2023-03-01T01:47:06.259Z,10.75
2023-03-01T01:53:18.178Z,11.32
2023-03-01T01:59:20.310Z,13.18
2023-03-01T02:05:45.377Z,12.05
2023-03-01T02:11:48.997Z,11.45
2023-03-01T02:17:51.499Z,8.50
2023-03-01T02:23:56.563Z,9.00
2023-03-01T02:29:58.380Z,8.18
2023-03-01T02:36:21.806Z,7.55
2023-03-01T02:42:27.701Z,9.35
2023-03-01T02:48:29.421Z,9.13
2023-03-01T02:55:03.263Z,9.35
2023-03-01T03:01:05.144Z,10.38
2023-03-01T03:07:07.091Z,10.75
2023-03-01T03:13:12.073Z,10.63
2023-03-01T03:19:14.294Z,9.88
2023-03-01T03:25:17.536Z,9.98
2023-03-01T03:31:19.797Z,10.65
2023-03-01T03:37:40.078Z,8.93
2023-03-01T03:43:43.741Z,13.40
2023-03-01T03:49:45.460Z,9.87
2023-03-01T03:55:50.344Z,11.77
2023-03-01T04:01:52.231Z,8.20
2023-03-01T04:08:02.210Z,9.50
2023-03-01T04:14:05.570Z,14.38
2023-03-01T04:20:08.720Z,9.23
2023-03-01T04:26:10.576Z,9.30
2023-03-01T04:32:14.532Z,8.98
2023-03-01T04:38:20.580Z,8.60
2023-03-01T04:44:22.287Z,11.32
2023-03-01T04:50:24.754Z,11.38
2023-03-01T04:56:26.515Z,9.98
2023-03-01T05:02:28.327Z,21.98
2023-03-01T05:08:30.058Z,26.00
2023-03-01T05:14:32.011Z,24.00
2023-03-01T05:20:37.218Z,32.08
2023-03-01T05:26:41.666Z,20.20
2023-03-01T05:32:49.064Z,17.60
2023-03-01T05:38:50.983Z,9.65
2023-03-01T05:44:52.704Z,12.23
2023-03-01T05:50:54.441Z,8.32
2023-03-01T05:56:57.275Z,11.13
2023-03-01T06:03:00.212Z,8.63
2023-03-01T06:09:01.946Z,10.70
2023-03-01T06:15:05.604Z,10.52
2023-03-01T06:21:09.221Z,9.10
2023-03-01T06:27:10.949Z,10.85
2023-03-01T06:33:12.705Z,12.90
2023-03-01T06:39:14.920Z,18.48
2023-03-01T06:45:17.185Z,54.63
2023-03-01T06:51:18.980Z,30.65
2023-03-01T06:57:20.884Z,14.02
2023-03-01T07:03:23.484Z,12.98
2023-03-01T07:09:25.650Z,12.27
2023-03-01T07:15:28.375Z,15.13
2023-03-01T07:21:30.111Z,11.35
2023-03-01T07:27:31.813Z,11.95
2023-03-01T07:33:34.085Z,13.82
2023-03-01T07:39:35.834Z,10.63
2023-03-01T07:45:37.630Z,17.48
2023-03-01T07:51:39.428Z,17.52
2023-03-01T07:57:41.245Z,10.68
2023-03-01T08:03:44.703Z,11.13
2023-03-01T08:09:46.454Z,17.33
2023-03-01T08:15:48.187Z,13.13
2023-03-01T08:21:50.027Z,12.60
2023-03-01T08:27:51.960Z,14.20
2023-03-01T08:33:56.804Z,13.43
2023-03-01T08:39:58.601Z,13.40
2023-03-01T08:46:00.473Z,8.88
2023-03-01T08:52:03.543Z,11.68
2023-03-01T08:58:05.550Z,11.25
2023-03-01T09:04:07.449Z,10.95
2023-03-01T09:10:10.101Z,9.40
2023-03-01T09:16:14.260Z,10.43
2023-03-01T09:22:16.185Z,13.27
2023-03-01T09:28:29.102Z,10.25
2023-03-01T09:34:32.433Z,9.90
2023-03-01T09:40:34.284Z,11.95
2023-03-01T09:46:42.753Z,9.35
2023-03-01T09:52:49.733Z,10.38
2023-03-01T09:59:01.431Z,8.88
2023-03-01T10:05:26.210Z,7.93
2023-03-01T10:11:32.094Z,9.45
2023-03-01T10:17:39.606Z,8.88
2023-03-01T10:23:41.404Z,9.55
2023-03-01T10:30:02.324Z,9.07
2023-03-01T10:36:04.413Z,10.82
2023-03-01T10:42:20.812Z,7.85
2023-03-01T10:48:27.168Z,8.63
2023-03-01T10:54:34.178Z,6.78
2023-03-01T11:00:54.499Z,8.20
2023-03-01T11:07:01.612Z,11.00
2023-03-01T11:13:18.636Z,9.57
2023-03-01T11:19:22.527Z,8.00
2023-03-01T11:25:40.349Z,8.07
2023-03-01T11:31:55.701Z,9.93
2023-03-01T11:38:36.488Z,9.23
2023-03-01T11:44:40.665Z,6.93
2023-03-01T11:50:47.614Z,10.82
2023-03-01T11:56:59.131Z,9.10
2023-03-01T12:03:28.999Z,9.25
2023-03-01T12:10:04.974Z,10.00
2023-03-01T12:16:12.673Z,10.07
2023-03-01T12:22:26.498Z,8.63
2023-03-01T12:28:53.220Z,12.23
2023-03-01T12:35:07.116Z,10.13
2023-03-01T12:41:23.020Z,8.27
2023-03-01T12:47:33.798Z,9.73
2023-03-01T12:53:55.083Z,7.85
2023-03-01T13:00:16.329Z,7.82
2023-03-01T13:06:42.512Z,8.88
2023-03-01T13:13:01.898Z,9.20
2023-03-01T13:19:23.612Z,11.00
2023-03-01T13:25:31.962Z,7.82
2023-03-01T13:31:39.341Z,7.35
2023-03-01T13:37:41.725Z,9.05
2023-03-01T13:43:46.995Z,8.45
2023-03-01T13:50:00.444Z,10.55
2023-03-01T13:56:24.803Z,6.72
2023-03-01T14:02:26.664Z,9.45
2023-03-01T14:08:31.693Z,10.15
2023-03-01T14:14:39.383Z,9.55
2023-03-01T14:20:43.871Z,6.90
2023-03-01T14:26:45.821Z,10.65
2023-03-01T14:32:58.726Z,5.75
2023-03-01T14:39:09.744Z,6.30
2023-03-01T14:45:14.747Z,6.05
2023-03-01T14:51:16.645Z,5.68
2023-03-01T14:57:25.432Z,5.85
2023-03-01T15:03:27.354Z,6.00
2023-03-01T15:09:30.091Z,5.53
2023-03-01T15:15:34.171Z,4.53
2023-03-01T15:21:40.384Z,5.15
2023-03-01T15:27:47.624Z,5.10
2023-03-01T15:33:50.022Z,4.68
2023-03-01T15:39:56.812Z,5.43
2023-03-01T15:45:59.272Z,5.32
2023-03-01T15:52:01.050Z,5.38
2023-03-01T15:58:12.598Z,6.60
2023-03-01T16:04:21.610Z,8.30
2023-03-01T16:10:34.889Z,4.60
2023-03-01T16:16:36.703Z,6.72
2023-03-01T16:22:38.437Z,7.38
2023-03-01T16:28:42.323Z,9.50
2023-03-01T16:34:44.048Z,4.87
2023-03-01T16:40:50.622Z,5.40
2023-03-01T16:46:52.388Z,5.63
2023-03-01T16:52:54.278Z,5.18
2023-03-01T16:58:56.082Z,4.72
2023-03-01T17:04:58.040Z,7.07
2023-03-01T17:11:05.176Z,7.20
2023-03-01T17:17:06.941Z,8.38
2023-03-01T17:23:08.712Z,8.25
2023-03-01T17:29:10.575Z,5.82
2023-03-01T17:35:12.640Z,8.85
2023-03-01T17:41:17.686Z,7.47
2023-03-01T17:47:19.518Z,7.95
2023-03-01T17:53:21.460Z,6.32
2023-03-01T17:59:23.401Z,6.10
2023-03-01T18:05:25.463Z,4.93
2023-03-01T18:11:27.822Z,7.20
2023-03-01T18:17:29.651Z,7.45
2023-03-01T18:23:33.581Z,9.00
2023-03-01T18:29:37.621Z,7.23
2023-03-01T18:35:39.449Z,11.07
2023-03-01T18:41:41.230Z,8.63
2023-03-01T18:47:42.964Z,5.32
2023-03-01T18:53:44.884Z,6.70
2023-03-01T18:59:46.577Z,5.53
2023-03-01T19:05:48.298Z,6.10
2023-03-01T19:11:49.962Z,6.13
2023-03-01T19:17:53.581Z,4.82
2023-03-01T19:23:57.690Z,6.18
2023-03-01T19:29:59.361Z,7.57
2023-03-01T19:36:02.786Z,5.65
2023-03-01T19:42:05.015Z,5.85
2023-03-01T19:48:06.881Z,6.07
2023-03-01T19:54:12.257Z,5.50
2023-03-01T20:00:15.119Z,7.10
2023-03-01T20:06:21.329Z,7.07
2023-03-01T20:12:23.388Z,7.47
2023-03-01T20:18:25.981Z,7.38
2023-03-01T20:24:28.136Z,8.48
2023-03-01T20:30:30.414Z,10.32
2023-03-01T20:36:32.362Z,8.52
2023-03-01T20:42:34.147Z,10.27
2023-03-01T20:48:36.006Z,7.53
2023-03-01T20:54:38.146Z,8.73
2023-03-01T21:00:39.981Z,8.85
2023-03-01T21:06:42.962Z,12.25
2023-03-01T21:12:45.394Z,14.32
2023-03-01T21:18:47.818Z,8.48
2023-03-01T21:24:52.168Z,6.53
2023-03-01T21:30:53.958Z,12.88
2023-03-01T21:36:55.890Z,11.23
2023-03-01T21:42:58.152Z,10.93
2023-03-01T21:49:00.235Z,12.07
2023-03-01T21:55:03.272Z,10.63
2023-03-01T22:01:17.110Z,8.82
2023-03-01T22:07:20.093Z,8.83
2023-03-01T22:13:22.001Z,8.85
2023-03-01T22:19:24.407Z,9.63
2023-03-01T22:25:26.590Z,9.20
2023-03-01T22:31:32.424Z,7.65
2023-03-01T22:37:34.341Z,8.85
2023-03-01T22:43:37.014Z,13.95
2023-03-01T22:49:38.989Z,11.80
2023-03-01T22:55:40.895Z,15.93
2023-03-01T23:01:46.612Z,11.48
2023-03-01T23:07:49.465Z,9.85
2023-03-01T23:13:52.467Z,7.00
2023-03-01T23:19:54.340Z,13.10
2023-03-01T23:25:59.985Z,10.48
2023-03-01T23:32:02.158Z,7.82
2023-03-01T23:38:03.990Z,7.07
2023-03-01T23:44:06.522Z,7.40
2023-03-01T23:50:10.774Z,7.50
2023-03-01T23:56:15.857Z,5.93
